Scroll for more >

River gauges, storages, and weirs in the Murray–Darling Basin

Type Locationsort descending River Water level Flow Volume Release Water temp Salinity Rainfall
River Gauge Albury (Union Bridge) Murray 0.99 m 28/06/2017 17:15 Not measured Not measured Not measured 11.5°C 28/06/2017 17:15 61.6 μS/cm 28/06/2017 17:15 Not measured Full data
River Gauge Balranald Murrumbidgee 1.52 m 28/06/2017 16:45 1023 ML/Day 28/06/2017 16:45 Not measured Not measured 9.5°C 28/06/2017 16:45 191.3 μS/cm 28/06/2017 16:45 Not measured Full data
River Gauge Bandiana Kiewa 0.94 m 28/06/2017 16:45 452 ML/Day 28/06/2017 16:45 Not measured Not measured 8.4°C 28/06/2017 16:45 44.0 μS/cm 28/06/2017 16:45 Not measured Full data
River Gauge Biggara Murray 0.36 m 28/06/2017 17:15 358 ML/Day 28/06/2017 17:15 Not measured Not measured 6.2°C 28/06/2017 17:15 58.0 μS/cm 28/06/2017 17:15 0.2 mm 28/06/2017 9:00 Full data
River Gauge Bringenbrong Bridge Murray 2 m 28/06/2017 17:15 7343 ML/Day 28/06/2017 17:15 Not measured Not measured Not measured Not measured Not measured Full data
River Gauge Burtundy Darling 0.8 m 28/06/2017 17:15 337 ML/Day 28/06/2017 17:15 Not measured Not measured 10.9°C 28/06/2017 17:15 609.4 μS/cm 28/06/2017 17:15 Not measured Full data
River Gauge Colemans Mitta 0.88 m 28/06/2017 17:15 207 ML/Day 28/06/2017 17:15 Not measured Not measured 9.4°C 28/06/2017 16:45 44.9 μS/cm 28/06/2017 16:45 Not measured Full data
River Gauge Colignan Murray 1.81 m 28/06/2017 16:30 5867 ML/Day 28/06/2017 16:30 Not measured Not measured 12.0°C 28/06/2017 16:30 157.5 μS/cm 28/06/2017 16:30 Not measured Full data
River Gauge Corowa Murray 1.11 m 28/06/2017 17:15 3462 ML/Day 28/06/2017 17:15 Not measured Not measured 9.7°C 28/06/2017 17:15 69.7 μS/cm 28/06/2017 17:15 Not measured Full data
Storage Dartmouth Dam Mitta 472.21 m 28/06/2017 17:15 Not measured 3015 GL 28/06/2017 17:15 Not measured Not measured Not measured Not measured Full data
River Gauge Doctors Point Murray 1.91 m 28/06/2017 17:15 3254 ML/Day 28/06/2017 17:15 Not measured Not measured 11.8°C 28/06/2017 17:15 53.4 μS/cm 28/06/2017 17:15 Not measured Full data
River Gauge Echuca Wharf Murray 86.28 m 28/06/2017 7:45 Not measured Not measured Not measured Not measured Not measured Not measured Full data
River Gauge Edward Escape Wakool 0.04 m 28/06/2017 16:45 7 ML/Day 28/06/2017 16:45 Not measured Not measured 10.2°C 28/06/2017 16:45 83.8 μS/cm 28/06/2017 16:45 Not measured Full data
River Gauge Edward River Offtake Murray 1.64 m 28/06/2017 17:15 591 ML/Day 28/06/2017 17:15 Not measured Not measured 9.7°C 28/06/2017 16:45 63.4 μS/cm 28/06/2017 16:45 Not measured Full data
Weirs Euston Weir Downstream Murray 43.11 m 28/06/2017 16:45 5483 ML/Day 28/06/2017 16:45 Not measured Not measured 10.4°C 28/06/2017 16:45 148.1 μS/cm 28/06/2017 16:45 Not measured Full data
Weirs Euston Weir Upstream Murray 47.4 m 28/06/2017 8:00 Not measured 34 GL 28/06/2017 7:45 Not measured Not measured Not measured 0.0 mm 27/06/2017 9:00 Full data
River Gauge Flow to South Australia Murray Not measured Not measured Not measured 6723.7 ML/d28/06/2017 7:45 Not measured Not measured Not measured Full data
River Gauge Frenchman Creek Murray 27.29 m 28/06/2017 7:45 Not measured Not measured 1064.0 ML/d28/06/2017 7:45 Not measured Not measured Not measured Full data
River Gauge Gulpa Creek Offtake Murray 2.08 m 28/06/2017 16:45 191 ML/Day 28/06/2017 16:45 Not measured Not measured Not measured Not measured Not measured Full data
River Gauge Hinnomunjie Mitta 0.58 m 28/06/2017 16:45 275 ML/Day 28/06/2017 16:45 Not measured Not measured 5.1°C 28/06/2017 16:45 49.9 μS/cm 28/06/2017 16:45 0.0 mm 28/06/2017 9:00 Full data
Storage Hume Dam Murray 187.03 m 28/06/2017 17:15 Not measured 2100 GL 28/06/2017 17:15 2700.0 ML/d28/06/2017 8:00 Not measured Not measured 0.0 mm 28/06/2017 9:00 Full data
River Gauge Jingellic Murray 2.04 m 28/06/2017 16:45 7394 ML/Day 28/06/2017 16:45 Not measured Not measured 8.7°C 28/06/2017 16:45 32.5 μS/cm 28/06/2017 16:45 0.0 mm 28/06/2017 9:00 Full data
River Gauge Kerang Loddon 0.34 m 28/06/2017 16:45 145 ML/Day 28/06/2017 16:45 Not measured Not measured 9.4°C 28/06/2017 16:45 1256.3 μS/cm 28/06/2017 16:45 Not measured Full data
River Gauge Lake Albert Murray 0.72 m 28/06/2017 5:45 Not measured 266 GL 28/06/2017 5:45 Not measured Not measured Not measured Not measured Full data
River Gauge Lake Alexandrina Murray 0.69 m 28/06/2017 5:45 Not measured 1573 GL 28/06/2017 5:45 Not measured Not measured 566.0 μS/cm 28/06/2017 16:45 Not measured Full data
Storage Lake Victoria Murray 24.79 m 28/06/2017 16:45 Not measured 426 GL 28/06/2017 16:45 Not measured 12.1°C 28/06/2017 16:45 227.3 μS/cm 28/06/2017 16:45 Not measured Full data
Weirs Lock 1 Downstream Murray 0.72 m 28/06/2017 16:45 Not measured Not measured 6141.3 ML/d28/06/2017 7:45 Not measured Not measured Not measured Full data
Weirs Lock 1 Upstream Murray 3.13 m 28/06/2017 16:45 Not measured Not measured Not measured 12.6°C 28/06/2017 16:45 447.9 μS/cm 28/06/2017 16:45 Not measured Full data
Weirs Lock 2 Downstream Murray 3.38 m 28/06/2017 16:45 Not measured Not measured Not measured Not measured Not measured Not measured Full data
Weirs Lock 2 Upstream Murray 6.11 m 28/06/2017 16:45 Not measured Not measured Not measured 12.3°C 28/06/2017 16:45 418.7 μS/cm 28/06/2017 16:45 Not measured Full data
Weirs Lock 3 Downstream Murray 6.36 m 28/06/2017 16:45 Not measured Not measured Not measured Not measured Not measured Not measured Full data
Weirs Lock 3 Upstream Murray 9.83 m 28/06/2017 16:45 Not measured Not measured Not measured Not measured Not measured Not measured Full data
Weirs Lock 4 Downstream Murray 10.61 m 28/06/2017 16:45 Not measured Not measured Not measured Not measured Not measured Not measured Full data
Weirs Lock 4 Upstream Murray 13.23 m 28/06/2017 16:45 Not measured Not measured Not measured Not measured Not measured Not measured Full data
Weirs Lock 5 Downstream Murray 13.39 m 28/06/2017 16:45 Not measured Not measured Not measured Not measured Not measured Not measured Full data
Weirs Lock 5 Upstream Murray 16.31 m 28/06/2017 16:45 Not measured Not measured Not measured 12.1°C 28/06/2017 16:45 340.0 μS/cm 28/06/2017 16:45 Not measured Full data
Weirs Lock 6 Downstream Murray 16.39 m 28/06/2017 16:45 Not measured Not measured Not measured Not measured Not measured Not measured Full data
Weirs Lock 6 Upstream Murray 19.27 m 28/06/2017 16:45 Not measured Not measured Not measured 12.4°C 28/06/2017 16:45 267.8 μS/cm 28/06/2017 16:45 Not measured Full data
Weirs Lock 7 Downstream Murray 20.45 m 28/06/2017 16:45 Not measured Not measured Not measured Not measured Not measured Not measured Full data
Weirs Lock 7 Upstream Murray 21.59 m 28/06/2017 16:45 Not measured Not measured Not measured 12.1°C 28/06/2017 16:45 240.6 μS/cm 28/06/2017 16:45 Not measured Full data
Weirs Lock 8 Upstream Murray 23.92 m 28/06/2017 16:45 Not measured Not measured Not measured 12.0°C 28/06/2017 16:45 235.5 μS/cm 28/06/2017 16:45 Not measured Full data
Weirs Lock 9 Downstream Murray 24 m 28/06/2017 16:45 Not measured Not measured Not measured Not measured Not measured Not measured Full data
Weirs Lock 9 Upstream Murray 27.36 m 28/06/2017 16:45 Not measured Not measured Not measured 12.0°C 28/06/2017 16:45 223.5 μS/cm 28/06/2017 16:45 Not measured Full data
River Gauge McCoy Bridge Goulburn 3.91 m 28/06/2017 16:45 5824 ML/Day 28/06/2017 16:45 Not measured Not measured 9.2°C 28/06/2017 16:45 94.6 μS/cm 28/06/2017 16:45 Not measured Full data
Storage Menindee Lakes Darling Not measured Not measured 769 GL 28/06/2017 7:45 Not measured Not measured Not measured Not measured Full data
Weirs Mildura Weir downstream Murray 30.88 m 28/06/2017 16:30 Not measured Not measured Not measured 11.5°C 28/06/2017 16:30 267.3 μS/cm 28/06/2017 16:30 Not measured Full data
River Gauge Morgan Downstream Murray Not measured Not measured Not measured 3371.2 ML/d28/06/2017 16:45 Not measured 418.9 μS/cm 28/06/2017 14:45 Not measured Full data
River Gauge Mulwala Canal Murray Not measured Not measured Not measured 0.0 ML/d28/06/2017 7:45 Not measured Not measured Not measured Full data
River Gauge Mundoo Barrage Murray 0.69 m 28/06/2017 7:45 Not measured Not measured Not measured Not measured Not measured Not measured Full data
River Gauge Murray Bridge Murray 0.67 m 28/06/2017 16:45 Not measured Not measured Not measured 12.6°C 28/06/2017 16:45 586.9 μS/cm 28/06/2017 16:45 Not measured Full data
River Gauge Peechelba Ovens 126.53 m 28/06/2017 16:45 603 ML/Day 28/06/2017 16:45 Not measured Not measured 7.2°C 28/06/2017 16:45 84.1 μS/cm 28/06/2017 16:45 Not measured Full data
River Gauge Pinegrove Murray 1.16 m 28/06/2017 17:15 229 ML/Day 28/06/2017 17:15 Not measured Not measured 6.6°C 28/06/2017 17:15 104.8 μS/cm 28/06/2017 17:15 0.0 mm 28/06/2017 9:00 Full data
River Gauge Rochester Campaspe 1.87 m 28/06/2017 16:45 205 ML/Day 28/06/2017 16:45 Not measured Not measured 8.9°C 28/06/2017 16:45 476.0 μS/cm 28/06/2017 16:45 0.0 mm 28/06/2017 9:00 Full data
River Gauge Rufus River Murray 20.56 m 28/06/2017 7:45 Not measured Not measured 1677.0 ML/d28/06/2017 7:45 Not measured 238.2 μS/cm 28/06/2017 14:45 Not measured Full data
Weirs Steven's Weir Downstream Wakool 0.88 m 28/06/2017 16:45 538 ML/Day 28/06/2017 16:45 Not measured Not measured 9.8°C 28/06/2017 16:45 77.6 μS/cm 28/06/2017 16:45 0.0 mm 27/06/2017 9:00 Full data
Weirs Steven's Weir Upstream Wakool 4.03 m 28/06/2017 17:15 Not measured Not measured Not measured Not measured Not measured Not measured Full data
River Gauge Stoney Crossing Murray 1.45 m 28/06/2017 16:45 496 ML/Day 28/06/2017 16:45 Not measured 483.8 ML/d28/06/2017 7:45 10.8°C 28/06/2017 16:45 417.0 μS/cm 28/06/2017 16:45 Not measured Full data
River Gauge Swan Hill Murray 0.83 m 28/06/2017 16:15 3280 ML/Day 28/06/2017 16:15 Not measured Not measured 10.3°C 28/06/2017 16:15 221.3 μS/cm 28/06/2017 16:15 Not measured Full data
River Gauge Tallandoon Mitta 1.33 m 28/06/2017 16:45 480 ML/Day 28/06/2017 16:45 Not measured Not measured 9.1°C 28/06/2017 16:45 53.0 μS/cm 28/06/2017 16:45 Not measured Full data
River Gauge Tauwitchere Barrage Murray 0.68 m 28/06/2017 16:45 Not measured Not measured Not measured Not measured Not measured Not measured Full data
River Gauge Tocumwal Murray 1.38 m 28/06/2017 16:15 3820 ML/Day 28/06/2017 16:15 Not measured Not measured 9.4°C 28/06/2017 16:15 70.7 μS/cm 28/06/2017 16:15 Not measured Full data
River Gauge Torrumbarry Headworks Murray 83.79 m 28/06/2017 16:45 Not measured Not measured 431.1 ML/d28/06/2017 16:45 Not measured Not measured Not measured Full data
Weirs Torrumbarry Weir Downstream Murray 1.83 m 28/06/2017 16:45 4891 ML/Day 28/06/2017 16:45 Not measured Not measured 9.4°C 28/06/2017 16:45 85.0 μS/cm 28/06/2017 16:45 Not measured Full data
Weirs Torrumbarry Weir Upstream Murray 85.7 m 28/06/2017 8:45 Not measured 34 GL 28/06/2017 8:45 Not measured 9.2°C 28/06/2017 8:45 82.9 μS/cm 28/06/2017 8:45 0.0 mm 28/06/2017 9:00 Full data
River Gauge Wakool Canal Wakool -0.56 m 28/06/2017 16:45 Not measured Not measured 0.0 ML/d28/06/2017 8:45 Not measured Not measured Not measured Full data
River Gauge Wakool Junction Murray 2.23 m 28/06/2017 16:45 4209 ML/Day 28/06/2017 16:45 Not measured Not measured 10.3°C 28/06/2017 16:45 157.7 μS/cm 28/06/2017 16:45 Not measured Full data
River Gauge Weir 32 Upstream Darling 1.48 m 28/06/2017 16:45 423 ML/Day 28/06/2017 16:45 Not measured Not measured 12.4°C 28/06/2017 16:45 622.9 μS/cm 28/06/2017 16:45 Not measured Full data
Weirs Wentworth Weir Murray 27.6 m 28/06/2017 16:45 Not measured Not measured 5545.0 ML/d28/06/2017 7:45 Not measured 222.9 μS/cm 28/06/2017 7:45 0.0 mm 27/06/2017 9:00 Full data
River Gauge Wilcania Darling 0.91 m 28/06/2017 16:45 653 ML/Day 28/06/2017 16:45 Not measured Not measured 11.4°C 28/06/2017 16:45 379.7 μS/cm 28/06/2017 16:45 Not measured Full data
River Gauge Yarrawonga Main Channel Murray 122.85 m 28/06/2017 16:45 Not measured Not measured 100.5 ML/d28/06/2017 8:45 Not measured Not measured Not measured Full data
Weirs Yarrawonga Weir Downstream Murray 0.74 m 28/06/2017 17:00 4015 ML/Day 28/06/2017 17:00 Not measured Not measured 10.3°C 28/06/2017 16:45 45.2 μS/cm 28/06/2017 16:45 Not measured Full data
Weirs Yarrawonga Weir Upstream Murray 124.72 m 28/06/2017 17:00 Not measured Not measured Not measured Not measured Not measured 0.2 mm 28/06/2017 9:00 Full data